sensor_id;sensor_type;location;lat;lon;timestamp;P1;durP1;ratioP1;P2;durP2;ratioP2
19519;SDS011;9904;52.246;20.898;2022-11-14T00:00:51;29.50;;;12.93;;
19519;SDS011;9904;52.246;20.898;2022-11-14T00:03:19;28.67;;;12.87;;
19519;SDS011;9904;52.246;20.898;2022-11-14T00:05:45;29.00;;;13.00;;
19519;SDS011;9904;52.246;20.898;2022-11-14T00:08:13;30.63;;;12.77;;
19519;SDS011;9904;52.246;20.898;2022-11-14T00:10:45;28.50;;;13.37;;
19519;SDS011;9904;52.246;20.898;2022-11-14T00:13:12;29.17;;;13.53;;
19519;SDS011;9904;52.246;20.898;2022-11-14T00:15:39;29.83;;;13.03;;
19519;SDS011;9904;52.246;20.898;2022-11-14T00:18:05;26.17;;;13.00;;
19519;SDS011;9904;52.246;20.898;2022-11-14T00:20:32;29.17;;;13.20;;
19519;SDS011;9904;52.246;20.898;2022-11-14T00:22:59;28.17;;;13.90;;
19519;SDS011;9904;52.246;20.898;2022-11-14T00:25:25;26.13;;;13.27;;
19519;SDS011;9904;52.246;20.898;2022-11-14T00:27:52;28.10;;;12.63;;
19519;SDS011;9904;52.246;20.898;2022-11-14T00:30:21;27.17;;;12.60;;
19519;SDS011;9904;52.246;20.898;2022-11-14T00:32:48;24.73;;;12.20;;
19519;SDS011;9904;52.246;20.898;2022-11-14T00:35:15;24.90;;;12.77;;
19519;SDS011;9904;52.246;20.898;2022-11-14T00:37:41;24.47;;;12.00;;
19519;SDS011;9904;52.246;20.898;2022-11-14T00:40:08;23.17;;;11.93;;
19519;SDS011;9904;52.246;20.898;2022-11-14T00:42:34;28.93;;;12.40;;
19519;SDS011;9904;52.246;20.898;2022-11-14T00:45:01;23.87;;;11.97;;
19519;SDS011;9904;52.246;20.898;2022-11-14T00:47:27;26.30;;;12.87;;
19519;SDS011;9904;52.246;20.898;2022-11-14T00:49:54;25.40;;;12.00;;
19519;SDS011;9904;52.246;20.898;2022-11-14T00:52:20;26.20;;;12.90;;
19519;SDS011;9904;52.246;20.898;2022-11-14T00:54:47;27.07;;;12.97;;
19519;SDS011;9904;52.246;20.898;2022-11-14T00:57:13;28.93;;;12.97;;
19519;SDS011;9904;52.246;20.898;2022-11-14T00:59:40;32.67;;;13.27;;
19519;SDS011;9904;52.246;20.898;2022-11-14T01:02:06;27.90;;;13.50;;
19519;SDS011;9904;52.246;20.898;2022-11-14T01:04:33;27.87;;;12.90;;
19519;SDS011;9904;52.246;20.898;2022-11-14T01:06:59;26.90;;;13.03;;
19519;SDS011;9904;52.246;20.898;2022-11-14T01:09:26;30.33;;;13.83;;
19519;SDS011;9904;52.246;20.898;2022-11-14T01:11:52;31.63;;;13.90;;
19519;SDS011;9904;52.246;20.898;2022-11-14T01:14:19;32.60;;;13.00;;
19519;SDS011;9904;52.246;20.898;2022-11-14T01:16:45;26.67;;;13.17;;
19519;SDS011;9904;52.246;20.898;2022-11-14T01:19:12;27.00;;;12.70;;
19519;SDS011;9904;52.246;20.898;2022-11-14T01:21:38;31.10;;;13.57;;
19519;SDS011;9904;52.246;20.898;2022-11-14T01:24:05;30.80;;;13.37;;
19519;SDS011;9904;52.246;20.898;2022-11-14T01:26:32;27.67;;;13.03;;
19519;SDS011;9904;52.246;20.898;2022-11-14T01:28:58;27.60;;;13.13;;
19519;SDS011;9904;52.246;20.898;2022-11-14T01:31:25;27.10;;;13.40;;
19519;SDS011;9904;52.246;20.898;2022-11-14T01:33:52;31.13;;;12.97;;
19519;SDS011;9904;52.246;20.898;2022-11-14T01:36:19;30.57;;;14.37;;
19519;SDS011;9904;52.246;20.898;2022-11-14T01:38:50;29.83;;;14.57;;
19519;SDS011;9904;52.246;20.898;2022-11-14T01:41:17;35.33;;;14.57;;
19519;SDS011;9904;52.246;20.898;2022-11-14T01:43:43;32.17;;;14.40;;
19519;SDS011;9904;52.246;20.898;2022-11-14T01:46:14;29.43;;;14.10;;
19519;SDS011;9904;52.246;20.898;2022-11-14T01:48:46;30.93;;;14.27;;
19519;SDS011;9904;52.246;20.898;2022-11-14T01:51:18;30.90;;;15.07;;
19519;SDS011;9904;52.246;20.898;2022-11-14T01:53:55;34.27;;;14.97;;
19519;SDS011;9904;52.246;20.898;2022-11-14T01:56:26;35.20;;;15.37;;
19519;SDS011;9904;52.246;20.898;2022-11-14T01:58:56;33.20;;;15.30;;
19519;SDS011;9904;52.246;20.898;2022-11-14T02:01:26;35.00;;;16.23;;
19519;SDS011;9904;52.246;20.898;2022-11-14T02:03:55;34.57;;;16.10;;
19519;SDS011;9904;52.246;20.898;2022-11-14T02:06:22;33.07;;;16.27;;
19519;SDS011;9904;52.246;20.898;2022-11-14T02:08:51;35.20;;;16.37;;
19519;SDS011;9904;52.246;20.898;2022-11-14T02:11:19;34.03;;;16.87;;
19519;SDS011;9904;52.246;20.898;2022-11-14T02:13:45;32.80;;;15.57;;
19519;SDS011;9904;52.246;20.898;2022-11-14T02:16:12;37.10;;;17.27;;
19519;SDS011;9904;52.246;20.898;2022-11-14T02:18:38;38.60;;;17.33;;
19519;SDS011;9904;52.246;20.898;2022-11-14T02:21:05;38.50;;;17.67;;
19519;SDS011;9904;52.246;20.898;2022-11-14T02:23:31;37.17;;;17.00;;
19519;SDS011;9904;52.246;20.898;2022-11-14T02:25:58;39.30;;;16.50;;
19519;SDS011;9904;52.246;20.898;2022-11-14T02:28:25;39.10;;;17.17;;
19519;SDS011;9904;52.246;20.898;2022-11-14T02:30:52;35.43;;;16.30;;
19519;SDS011;9904;52.246;20.898;2022-11-14T02:33:20;38.90;;;17.87;;
19519;SDS011;9904;52.246;20.898;2022-11-14T02:35:47;35.40;;;16.33;;
19519;SDS011;9904;52.246;20.898;2022-11-14T02:38:13;41.00;;;18.47;;
19519;SDS011;9904;52.246;20.898;2022-11-14T02:40:39;36.63;;;17.30;;
19519;SDS011;9904;52.246;20.898;2022-11-14T02:43:06;41.83;;;18.00;;
19519;SDS011;9904;52.246;20.898;2022-11-14T02:45:33;41.93;;;18.33;;
19519;SDS011;9904;52.246;20.898;2022-11-14T02:47:59;41.73;;;18.67;;
19519;SDS011;9904;52.246;20.898;2022-11-14T02:50:26;40.80;;;17.60;;
19519;SDS011;9904;52.246;20.898;2022-11-14T02:52:52;43.70;;;18.43;;
19519;SDS011;9904;52.246;20.898;2022-11-14T02:55:20;39.37;;;18.70;;
19519;SDS011;9904;52.246;20.898;2022-11-14T02:57:46;39.70;;;18.50;;
19519;SDS011;9904;52.246;20.898;2022-11-14T03:00:13;39.83;;;18.63;;
19519;SDS011;9904;52.246;20.898;2022-11-14T03:02:40;40.80;;;19.33;;
19519;SDS011;9904;52.246;20.898;2022-11-14T03:05:07;40.13;;;18.73;;
19519;SDS011;9904;52.246;20.898;2022-11-14T03:07:33;41.83;;;18.03;;
19519;SDS011;9904;52.246;20.898;2022-11-14T03:10:00;41.87;;;19.27;;
19519;SDS011;9904;52.246;20.898;2022-11-14T03:12:27;37.60;;;18.07;;
19519;SDS011;9904;52.246;20.898;2022-11-14T03:14:53;38.87;;;18.77;;
19519;SDS011;9904;52.246;20.898;2022-11-14T03:17:20;42.07;;;18.73;;
19519;SDS011;9904;52.246;20.898;2022-11-14T03:19:49;38.73;;;17.63;;
19519;SDS011;9904;52.246;20.898;2022-11-14T03:22:16;33.33;;;16.40;;
19519;SDS011;9904;52.246;20.898;2022-11-14T03:24:43;34.37;;;17.10;;
19519;SDS011;9904;52.246;20.898;2022-11-14T03:27:09;35.43;;;16.20;;
19519;SDS011;9904;52.246;20.898;2022-11-14T03:29:36;33.40;;;16.77;;
19519;SDS011;9904;52.246;20.898;2022-11-14T03:32:02;32.70;;;15.90;;
19519;SDS011;9904;52.246;20.898;2022-11-14T03:34:29;33.03;;;15.53;;
19519;SDS011;9904;52.246;20.898;2022-11-14T03:36:55;32.23;;;14.37;;
19519;SDS011;9904;52.246;20.898;2022-11-14T03:39:22;30.33;;;14.57;;
19519;SDS011;9904;52.246;20.898;2022-11-14T03:41:48;31.27;;;14.93;;
19519;SDS011;9904;52.246;20.898;2022-11-14T03:44:15;31.93;;;14.70;;
19519;SDS011;9904;52.246;20.898;2022-11-14T03:46:41;27.60;;;13.13;;
19519;SDS011;9904;52.246;20.898;2022-11-14T03:49:07;33.17;;;14.20;;
19519;SDS011;9904;52.246;20.898;2022-11-14T03:51:34;28.77;;;13.50;;
19519;SDS011;9904;52.246;20.898;2022-11-14T03:54:01;26.60;;;13.33;;
19519;SDS011;9904;52.246;20.898;2022-11-14T03:56:27;30.40;;;13.87;;
19519;SDS011;9904;52.246;20.898;2022-11-14T03:58:54;25.30;;;12.77;;
19519;SDS011;9904;52.246;20.898;2022-11-14T04:01:20;28.97;;;13.60;;
19519;SDS011;9904;52.246;20.898;2022-11-14T04:03:47;29.87;;;13.60;;
19519;SDS011;9904;52.246;20.898;2022-11-14T04:06:13;21.37;;;11.00;;
19519;SDS011;9904;52.246;20.898;2022-11-14T04:08:40;23.07;;;11.40;;
19519;SDS011;9904;52.246;20.898;2022-11-14T04:11:06;27.30;;;11.87;;
19519;SDS011;9904;52.246;20.898;2022-11-14T04:13:33;19.73;;;10.87;;
19519;SDS011;9904;52.246;20.898;2022-11-14T04:15:59;19.27;;;10.37;;
19519;SDS011;9904;52.246;20.898;2022-11-14T04:18:26;23.57;;;10.00;;
19519;SDS011;9904;52.246;20.898;2022-11-14T04:20:54;21.53;;;9.67;;
19519;SDS011;9904;52.246;20.898;2022-11-14T04:23:20;19.20;;;9.17;;
19519;SDS011;9904;52.246;20.898;2022-11-14T04:25:47;20.43;;;9.73;;
19519;SDS011;9904;52.246;20.898;2022-11-14T04:28:13;21.00;;;10.60;;
19519;SDS011;9904;52.246;20.898;2022-11-14T04:30:40;19.57;;;10.57;;
19519;SDS011;9904;52.246;20.898;2022-11-14T04:33:06;20.17;;;10.50;;
19519;SDS011;9904;52.246;20.898;2022-11-14T04:35:33;22.37;;;10.27;;
19519;SDS011;9904;52.246;20.898;2022-11-14T04:37:59;23.00;;;11.20;;
19519;SDS011;9904;52.246;20.898;2022-11-14T04:40:26;23.17;;;10.53;;
19519;SDS011;9904;52.246;20.898;2022-11-14T04:42:52;19.73;;;10.20;;
19519;SDS011;9904;52.246;20.898;2022-11-14T04:45:20;17.80;;;10.33;;
19519;SDS011;9904;52.246;20.898;2022-11-14T04:47:46;20.37;;;10.10;;
19519;SDS011;9904;52.246;20.898;2022-11-14T04:50:13;18.97;;;10.13;;
19519;SDS011;9904;52.246;20.898;2022-11-14T04:52:39;20.63;;;10.47;;
19519;SDS011;9904;52.246;20.898;2022-11-14T04:55:06;21.63;;;11.20;;
19519;SDS011;9904;52.246;20.898;2022-11-14T04:57:33;19.27;;;9.10;;
19519;SDS011;9904;52.246;20.898;2022-11-14T04:59:59;16.73;;;9.10;;
19519;SDS011;9904;52.246;20.898;2022-11-14T05:02:25;15.00;;;8.03;;
19519;SDS011;9904;52.246;20.898;2022-11-14T05:04:52;13.23;;;7.93;;
19519;SDS011;9904;52.246;20.898;2022-11-14T05:07:19;15.17;;;7.47;;
19519;SDS011;9904;52.246;20.898;2022-11-14T05:09:45;16.17;;;8.30;;
19519;SDS011;9904;52.246;20.898;2022-11-14T05:12:12;18.57;;;8.37;;
19519;SDS011;9904;52.246;20.898;2022-11-14T05:14:38;16.10;;;8.07;;
19519;SDS011;9904;52.246;20.898;2022-11-14T05:17:05;15.87;;;8.23;;
19519;SDS011;9904;52.246;20.898;2022-11-14T05:19:31;19.07;;;8.53;;
19519;SDS011;9904;52.246;20.898;2022-11-14T05:21:58;14.37;;;8.50;;
19519;SDS011;9904;52.246;20.898;2022-11-14T05:24:25;19.60;;;8.97;;
19519;SDS011;9904;52.246;20.898;2022-11-14T05:26:52;20.10;;;9.23;;
19519;SDS011;9904;52.246;20.898;2022-11-14T05:29:19;19.83;;;9.80;;
19519;SDS011;9904;52.246;20.898;2022-11-14T05:31:45;17.77;;;9.07;;
19519;SDS011;9904;52.246;20.898;2022-11-14T05:34:12;18.23;;;8.70;;
19519;SDS011;9904;52.246;20.898;2022-11-14T05:36:38;19.33;;;9.17;;
19519;SDS011;9904;52.246;20.898;2022-11-14T05:39:05;22.03;;;9.77;;
19519;SDS011;9904;52.246;20.898;2022-11-14T05:41:31;18.90;;;8.97;;
19519;SDS011;9904;52.246;20.898;2022-11-14T05:43:58;15.37;;;8.00;;
19519;SDS011;9904;52.246;20.898;2022-11-14T05:46:24;17.47;;;8.83;;
19519;SDS011;9904;52.246;20.898;2022-11-14T05:48:51;14.67;;;7.83;;
19519;SDS011;9904;52.246;20.898;2022-11-14T05:51:18;16.50;;;8.77;;
19519;SDS011;9904;52.246;20.898;2022-11-14T05:53:44;16.87;;;8.20;;
19519;SDS011;9904;52.246;20.898;2022-11-14T05:56:11;25.70;;;10.03;;
19519;SDS011;9904;52.246;20.898;2022-11-14T05:58:38;19.07;;;10.20;;
19519;SDS011;9904;52.246;20.898;2022-11-14T06:01:12;21.00;;;9.60;;
19519;SDS011;9904;52.246;20.898;2022-11-14T06:03:42;19.33;;;9.40;;
19519;SDS011;9904;52.246;20.898;2022-11-14T06:06:11;16.77;;;8.73;;
19519;SDS011;9904;52.246;20.898;2022-11-14T06:08:39;18.43;;;8.67;;
19519;SDS011;9904;52.246;20.898;2022-11-14T06:11:10;18.80;;;9.20;;
19519;SDS011;9904;52.246;20.898;2022-11-14T06:13:39;17.80;;;9.47;;
19519;SDS011;9904;52.246;20.898;2022-11-14T06:16:07;21.50;;;9.33;;
19519;SDS011;9904;52.246;20.898;2022-11-14T06:18:36;21.13;;;10.23;;
19519;SDS011;9904;52.246;20.898;2022-11-14T06:21:08;18.43;;;9.30;;
19519;SDS011;9904;52.246;20.898;2022-11-14T06:23:36;23.50;;;10.23;;
19519;SDS011;9904;52.246;20.898;2022-11-14T06:26:04;19.83;;;9.30;;
19519;SDS011;9904;52.246;20.898;2022-11-14T06:28:32;19.47;;;9.50;;
19519;SDS011;9904;52.246;20.898;2022-11-14T06:30:59;18.03;;;9.00;;
19519;SDS011;9904;52.246;20.898;2022-11-14T06:33:27;16.67;;;9.10;;
19519;SDS011;9904;52.246;20.898;2022-11-14T06:35:58;17.87;;;9.07;;
19519;SDS011;9904;52.246;20.898;2022-11-14T06:38:29;17.97;;;8.93;;
19519;SDS011;9904;52.246;20.898;2022-11-14T06:41:04;18.40;;;8.20;;
19519;SDS011;9904;52.246;20.898;2022-11-14T06:43:32;15.47;;;8.13;;
19519;SDS011;9904;52.246;20.898;2022-11-14T06:45:59;15.73;;;8.30;;
19519;SDS011;9904;52.246;20.898;2022-11-14T06:48:26;17.43;;;7.60;;
19519;SDS011;9904;52.246;20.898;2022-11-14T06:50:53;20.57;;;8.43;;
19519;SDS011;9904;52.246;20.898;2022-11-14T06:53:21;13.47;;;7.60;;
19519;SDS011;9904;52.246;20.898;2022-11-14T06:55:58;15.67;;;6.90;;
19519;SDS011;9904;52.246;20.898;2022-11-14T06:58:30;15.17;;;7.60;;
19519;SDS011;9904;52.246;20.898;2022-11-14T07:01:02;16.47;;;8.23;;
19519;SDS011;9904;52.246;20.898;2022-11-14T07:03:32;16.10;;;7.97;;
19519;SDS011;9904;52.246;20.898;2022-11-14T07:05:59;15.57;;;8.47;;
19519;SDS011;9904;52.246;20.898;2022-11-14T07:08:26;12.33;;;6.67;;
19519;SDS011;9904;52.246;20.898;2022-11-14T07:10:59;13.87;;;7.97;;
19519;SDS011;9904;52.246;20.898;2022-11-14T07:13:35;13.90;;;7.70;;
19519;SDS011;9904;52.246;20.898;2022-11-14T07:16:03;13.53;;;7.97;;
19519;SDS011;9904;52.246;20.898;2022-11-14T07:18:31;13.73;;;7.20;;
19519;SDS011;9904;52.246;20.898;2022-11-14T07:20:59;14.90;;;8.27;;
19519;SDS011;9904;52.246;20.898;2022-11-14T07:23:27;15.07;;;8.00;;
19519;SDS011;9904;52.246;20.898;2022-11-14T07:25:54;15.10;;;8.20;;
19519;SDS011;9904;52.246;20.898;2022-11-14T07:28:21;14.60;;;7.63;;
19519;SDS011;9904;52.246;20.898;2022-11-14T07:30:48;14.93;;;7.50;;
19519;SDS011;9904;52.246;20.898;2022-11-14T07:33:14;13.23;;;6.80;;
19519;SDS011;9904;52.246;20.898;2022-11-14T07:35:41;10.03;;;5.70;;
19519;SDS011;9904;52.246;20.898;2022-11-14T07:38:08;8.50;;;5.53;;
19519;SDS011;9904;52.246;20.898;2022-11-14T07:40:34;10.93;;;5.43;;
19519;SDS011;9904;52.246;20.898;2022-11-14T07:43:01;10.10;;;5.87;;
19519;SDS011;9904;52.246;20.898;2022-11-14T07:45:28;8.30;;;5.40;;
19519;SDS011;9904;52.246;20.898;2022-11-14T07:47:56;11.87;;;6.33;;
19519;SDS011;9904;52.246;20.898;2022-11-14T07:50:23;10.30;;;5.60;;
19519;SDS011;9904;52.246;20.898;2022-11-14T07:52:51;11.73;;;5.93;;
19519;SDS011;9904;52.246;20.898;2022-11-14T07:55:18;11.73;;;6.23;;
19519;SDS011;9904;52.246;20.898;2022-11-14T07:57:45;10.03;;;5.83;;
19519;SDS011;9904;52.246;20.898;2022-11-14T08:00:14;13.77;;;6.80;;
19519;SDS011;9904;52.246;20.898;2022-11-14T08:02:42;11.33;;;6.30;;
19519;SDS011;9904;52.246;20.898;2022-11-14T08:05:08;12.17;;;6.40;;
19519;SDS011;9904;52.246;20.898;2022-11-14T08:07:35;15.13;;;7.10;;
19519;SDS011;9904;52.246;20.898;2022-11-14T08:10:02;15.20;;;7.70;;
19519;SDS011;9904;52.246;20.898;2022-11-14T08:12:28;17.93;;;7.50;;
19519;SDS011;9904;52.246;20.898;2022-11-14T08:14:55;11.73;;;7.13;;
19519;SDS011;9904;52.246;20.898;2022-11-14T08:17:22;12.00;;;6.87;;
19519;SDS011;9904;52.246;20.898;2022-11-14T08:19:49;15.50;;;6.83;;
19519;SDS011;9904;52.246;20.898;2022-11-14T08:22:15;10.67;;;6.53;;
19519;SDS011;9904;52.246;20.898;2022-11-14T08:24:42;12.77;;;6.50;;
19519;SDS011;9904;52.246;20.898;2022-11-14T08:27:08;9.63;;;6.13;;
19519;SDS011;9904;52.246;20.898;2022-11-14T08:29:35;12.90;;;6.13;;
19519;SDS011;9904;52.246;20.898;2022-11-14T08:32:01;12.27;;;6.47;;
19519;SDS011;9904;52.246;20.898;2022-11-14T08:34:28;10.87;;;6.40;;
19519;SDS011;9904;52.246;20.898;2022-11-14T08:36:55;14.43;;;6.43;;
19519;SDS011;9904;52.246;20.898;2022-11-14T08:39:23;13.23;;;6.93;;
19519;SDS011;9904;52.246;20.898;2022-11-14T08:41:49;14.13;;;6.87;;
19519;SDS011;9904;52.246;20.898;2022-11-14T08:44:16;13.33;;;6.23;;
19519;SDS011;9904;52.246;20.898;2022-11-14T08:46:43;16.00;;;7.23;;
19519;SDS011;9904;52.246;20.898;2022-11-14T08:49:09;12.13;;;6.13;;
19519;SDS011;9904;52.246;20.898;2022-11-14T08:51:36;10.03;;;6.43;;
19519;SDS011;9904;52.246;20.898;2022-11-14T08:54:02;11.23;;;6.57;;
19519;SDS011;9904;52.246;20.898;2022-11-14T08:56:29;13.37;;;7.27;;
19519;SDS011;9904;52.246;20.898;2022-11-14T08:58:55;22.50;;;7.23;;
19519;SDS011;9904;52.246;20.898;2022-11-14T09:01:22;24.60;;;6.27;;
19519;SDS011;9904;52.246;20.898;2022-11-14T09:03:49;12.57;;;5.30;;
19519;SDS011;9904;52.246;20.898;2022-11-14T09:06:22;7.93;;;4.70;;
19519;SDS011;9904;52.246;20.898;2022-11-14T09:08:48;7.80;;;4.63;;
19519;SDS011;9904;52.246;20.898;2022-11-14T09:11:15;8.53;;;4.97;;
19519;SDS011;9904;52.246;20.898;2022-11-14T09:13:44;8.40;;;4.63;;
19519;SDS011;9904;52.246;20.898;2022-11-14T09:16:11;10.13;;;5.77;;
19519;SDS011;9904;52.246;20.898;2022-11-14T09:18:38;8.90;;;5.53;;
19519;SDS011;9904;52.246;20.898;2022-11-14T09:21:05;11.67;;;6.60;;
19519;SDS011;9904;52.246;20.898;2022-11-14T09:23:33;11.37;;;6.93;;
19519;SDS011;9904;52.246;20.898;2022-11-14T09:26:04;11.03;;;7.47;;
19519;SDS011;9904;52.246;20.898;2022-11-14T09:28:35;12.67;;;7.67;;
19519;SDS011;9904;52.246;20.898;2022-11-14T09:31:02;15.57;;;8.50;;
19519;SDS011;9904;52.246;20.898;2022-11-14T09:33:33;13.27;;;7.87;;
19519;SDS011;9904;52.246;20.898;2022-11-14T09:36:04;13.73;;;7.97;;
19519;SDS011;9904;52.246;20.898;2022-11-14T09:38:32;20.00;;;8.87;;
19519;SDS011;9904;52.246;20.898;2022-11-14T09:41:25;14.23;;;8.13;;
19519;SDS011;9904;52.246;20.898;2022-11-14T09:46:57;13.90;;;8.30;;
19519;SDS011;9904;52.246;20.898;2022-11-14T09:49:35;11.87;;;7.13;;
19519;SDS011;9904;52.246;20.898;2022-11-14T09:52:08;12.60;;;7.37;;
19519;SDS011;9904;52.246;20.898;2022-11-14T09:54:47;11.60;;;7.37;;
19519;SDS011;9904;52.246;20.898;2022-11-14T09:57:18;14.00;;;8.33;;
19519;SDS011;9904;52.246;20.898;2022-11-14T09:59:45;15.90;;;7.60;;
19519;SDS011;9904;52.246;20.898;2022-11-14T10:02:15;11.60;;;7.23;;
19519;SDS011;9904;52.246;20.898;2022-11-14T10:05:12;16.63;;;8.27;;
19519;SDS011;9904;52.246;20.898;2022-11-14T10:08:19;15.43;;;8.40;;
19519;SDS011;9904;52.246;20.898;2022-11-14T10:11:24;12.17;;;6.87;;
19519;SDS011;9904;52.246;20.898;2022-11-14T10:17:11;10.70;;;6.47;;
19519;SDS011;9904;52.246;20.898;2022-11-14T10:25:27;14.83;;;7.50;;
19519;SDS011;9904;52.246;20.898;2022-11-14T10:30:55;14.43;;;7.93;;
19519;SDS011;9904;52.246;20.898;2022-11-14T10:33:49;13.10;;;7.90;;
19519;SDS011;9904;52.246;20.898;2022-11-14T10:36:32;16.37;;;8.47;;
19519;SDS011;9904;52.246;20.898;2022-11-14T10:39:23;13.40;;;8.10;;
19519;SDS011;9904;52.246;20.898;2022-11-14T10:41:55;17.57;;;8.20;;
19519;SDS011;9904;52.246;20.898;2022-11-14T10:44:35;20.03;;;7.90;;
19519;SDS011;9904;52.246;20.898;2022-11-14T10:47:07;14.37;;;7.43;;
19519;SDS011;9904;52.246;20.898;2022-11-14T10:49:38;13.00;;;7.03;;
19519;SDS011;9904;52.246;20.898;2022-11-14T10:52:08;10.77;;;6.43;;
19519;SDS011;9904;52.246;20.898;2022-11-14T10:54:50;12.03;;;6.27;;
19519;SDS011;9904;52.246;20.898;2022-11-14T10:57:21;9.83;;;6.00;;
19519;SDS011;9904;52.246;20.898;2022-11-14T10:59:48;14.77;;;6.73;;
19519;SDS011;9904;52.246;20.898;2022-11-14T11:02:14;14.97;;;7.63;;
19519;SDS011;9904;52.246;20.898;2022-11-14T11:04:42;14.03;;;7.20;;
19519;SDS011;9904;52.246;20.898;2022-11-14T11:10:00;18.43;;;8.93;;
19519;SDS011;9904;52.246;20.898;2022-11-14T11:12:46;22.83;;;9.23;;
19519;SDS011;9904;52.246;20.898;2022-11-14T11:17:57;17.97;;;9.67;;
19519;SDS011;9904;52.246;20.898;2022-11-14T11:20:27;16.03;;;9.50;;
19519;SDS011;9904;52.246;20.898;2022-11-14T11:23:04;22.33;;;10.87;;
19519;SDS011;9904;52.246;20.898;2022-11-14T11:25:32;21.67;;;9.60;;
19519;SDS011;9904;52.246;20.898;2022-11-14T11:28:08;20.63;;;9.73;;
19519;SDS011;9904;52.246;20.898;2022-11-14T11:30:36;18.37;;;9.80;;
19519;SDS011;9904;52.246;20.898;2022-11-14T11:33:20;21.20;;;9.97;;
19519;SDS011;9904;52.246;20.898;2022-11-14T11:35:49;16.43;;;9.00;;
19519;SDS011;9904;52.246;20.898;2022-11-14T11:38:16;13.60;;;8.27;;
19519;SDS011;9904;52.246;20.898;2022-11-14T11:40:43;15.50;;;8.77;;
19519;SDS011;9904;52.246;20.898;2022-11-14T11:46:10;14.13;;;8.37;;
19519;SDS011;9904;52.246;20.898;2022-11-14T11:48:40;15.30;;;8.17;;
19519;SDS011;9904;52.246;20.898;2022-11-14T11:51:11;16.90;;;8.23;;
19519;SDS011;9904;52.246;20.898;2022-11-14T11:53:43;23.73;;;9.03;;
19519;SDS011;9904;52.246;20.898;2022-11-14T11:56:13;16.17;;;7.93;;
19519;SDS011;9904;52.246;20.898;2022-11-14T12:01:49;10.87;;;6.37;;
19519;SDS011;9904;52.246;20.898;2022-11-14T12:04:16;10.03;;;5.70;;
19519;SDS011;9904;52.246;20.898;2022-11-14T12:07:17;9.60;;;5.67;;
19519;SDS011;9904;52.246;20.898;2022-11-14T12:09:45;9.40;;;5.50;;
19519;SDS011;9904;52.246;20.898;2022-11-14T12:12:48;12.00;;;5.77;;
19519;SDS011;9904;52.246;20.898;2022-11-14T12:21:23;13.87;;;7.43;;
19519;SDS011;9904;52.246;20.898;2022-11-14T12:24:26;11.57;;;7.23;;
19519;SDS011;9904;52.246;20.898;2022-11-14T12:27:23;12.87;;;7.40;;
19519;SDS011;9904;52.246;20.898;2022-11-14T12:30:13;16.40;;;7.70;;
19519;SDS011;9904;52.246;20.898;2022-11-14T12:35:17;18.47;;;9.47;;
19519;SDS011;9904;52.246;20.898;2022-11-14T12:37:47;18.57;;;10.23;;
19519;SDS011;9904;52.246;20.898;2022-11-14T12:40:30;24.70;;;11.60;;
19519;SDS011;9904;52.246;20.898;2022-11-14T12:42:59;25.23;;;13.43;;
19519;SDS011;9904;52.246;20.898;2022-11-14T12:48:19;30.53;;;15.57;;
19519;SDS011;9904;52.246;20.898;2022-11-14T12:50:47;38.33;;;16.00;;
19519;SDS011;9904;52.246;20.898;2022-11-14T13:01:49;36.67;;;17.73;;
19519;SDS011;9904;52.246;20.898;2022-11-14T13:07:18;28.07;;;14.93;;
19519;SDS011;9904;52.246;20.898;2022-11-14T13:10:30;30.10;;;17.23;;
19519;SDS011;9904;52.246;20.898;2022-11-14T13:13:06;34.70;;;17.67;;
19519;SDS011;9904;52.246;20.898;2022-11-14T13:15:54;31.90;;;16.13;;
19519;SDS011;9904;52.246;20.898;2022-11-14T13:27:24;51.60;;;19.47;;
19519;SDS011;9904;52.246;20.898;2022-11-14T13:30:12;45.67;;;18.60;;
19519;SDS011;9904;52.246;20.898;2022-11-14T13:35:12;45.70;;;18.57;;
19519;SDS011;9904;52.246;20.898;2022-11-14T13:38:07;51.47;;;19.87;;
19519;SDS011;9904;52.246;20.898;2022-11-14T13:43:28;51.63;;;21.40;;
19519;SDS011;9904;52.246;20.898;2022-11-14T13:46:07;51.03;;;21.23;;
19519;SDS011;9904;52.246;20.898;2022-11-14T13:48:46;43.67;;;19.53;;
19519;SDS011;9904;52.246;20.898;2022-11-14T13:51:22;47.30;;;21.03;;
19519;SDS011;9904;52.246;20.898;2022-11-14T13:54:10;50.77;;;23.20;;
19519;SDS011;9904;52.246;20.898;2022-11-14T13:56:49;57.17;;;26.40;;
19519;SDS011;9904;52.246;20.898;2022-11-14T13:59:47;55.93;;;24.67;;
19519;SDS011;9904;52.246;20.898;2022-11-14T14:02:26;58.17;;;27.67;;
19519;SDS011;9904;52.246;20.898;2022-11-14T14:05:20;61.47;;;26.77;;
19519;SDS011;9904;52.246;20.898;2022-11-14T14:10:49;59.20;;;26.00;;
19519;SDS011;9904;52.246;20.898;2022-11-14T14:22:16;45.40;;;21.87;;
19519;SDS011;9904;52.246;20.898;2022-11-14T14:24:53;48.80;;;23.70;;
19519;SDS011;9904;52.246;20.898;2022-11-14T14:30:02;45.63;;;20.87;;
19519;SDS011;9904;52.246;20.898;2022-11-14T14:32:33;46.17;;;21.47;;
19519;SDS011;9904;52.246;20.898;2022-11-14T14:37:53;43.70;;;21.13;;
19519;SDS011;9904;52.246;20.898;2022-11-14T14:40:43;42.07;;;19.53;;
19519;SDS011;9904;52.246;20.898;2022-11-14T14:43:24;40.00;;;19.83;;
19519;SDS011;9904;52.246;20.898;2022-11-14T14:45:56;39.73;;;17.83;;
19519;SDS011;9904;52.246;20.898;2022-11-14T14:48:24;37.23;;;17.60;;
19519;SDS011;9904;52.246;20.898;2022-11-14T14:50:54;38.10;;;17.53;;
19519;SDS011;9904;52.246;20.898;2022-11-14T14:53:28;33.77;;;15.83;;
19519;SDS011;9904;52.246;20.898;2022-11-14T14:55:56;31.23;;;14.60;;
19519;SDS011;9904;52.246;20.898;2022-11-14T14:58:27;31.77;;;14.87;;
19519;SDS011;9904;52.246;20.898;2022-11-14T15:03:28;31.10;;;15.47;;
19519;SDS011;9904;52.246;20.898;2022-11-14T15:06:06;31.77;;;14.73;;
19519;SDS011;9904;52.246;20.898;2022-11-14T15:08:46;31.50;;;14.73;;
19519;SDS011;9904;52.246;20.898;2022-11-14T15:11:13;31.23;;;14.70;;
19519;SDS011;9904;52.246;20.898;2022-11-14T15:13:40;29.60;;;15.50;;
19519;SDS011;9904;52.246;20.898;2022-11-14T15:16:07;32.33;;;14.67;;
19519;SDS011;9904;52.246;20.898;2022-11-14T15:18:34;31.40;;;16.27;;
19519;SDS011;9904;52.246;20.898;2022-11-14T15:23:56;27.83;;;15.20;;
19519;SDS011;9904;52.246;20.898;2022-11-14T15:26:24;27.67;;;14.93;;
19519;SDS011;9904;52.246;20.898;2022-11-14T15:28:51;29.83;;;14.20;;
19519;SDS011;9904;52.246;20.898;2022-11-14T15:31:30;27.53;;;13.53;;
19519;SDS011;9904;52.246;20.898;2022-11-14T15:34:00;22.83;;;13.60;;
19519;SDS011;9904;52.246;20.898;2022-11-14T15:36:29;26.50;;;13.90;;
19519;SDS011;9904;52.246;20.898;2022-11-14T15:39:03;24.60;;;12.53;;
19519;SDS011;9904;52.246;20.898;2022-11-14T15:41:31;24.37;;;12.67;;
19519;SDS011;9904;52.246;20.898;2022-11-14T15:43:58;26.57;;;13.30;;
19519;SDS011;9904;52.246;20.898;2022-11-14T15:46:40;25.90;;;13.67;;
19519;SDS011;9904;52.246;20.898;2022-11-14T15:49:14;20.67;;;12.93;;
19519;SDS011;9904;52.246;20.898;2022-11-14T15:54:20;24.90;;;13.67;;
19519;SDS011;9904;52.246;20.898;2022-11-14T15:56:48;26.50;;;14.30;;
19519;SDS011;9904;52.246;20.898;2022-11-14T15:59:15;33.07;;;17.63;;
19519;SDS011;9904;52.246;20.898;2022-11-14T16:01:42;27.37;;;14.93;;
19519;SDS011;9904;52.246;20.898;2022-11-14T16:04:20;30.37;;;14.10;;
19519;SDS011;9904;52.246;20.898;2022-11-14T16:06:54;33.80;;;16.23;;
19519;SDS011;9904;52.246;20.898;2022-11-14T16:09:21;32.87;;;16.93;;
19519;SDS011;9904;52.246;20.898;2022-11-14T16:11:48;31.67;;;17.40;;
19519;SDS011;9904;52.246;20.898;2022-11-14T16:14:14;30.87;;;15.77;;